sensor_id;sensor_type;location;lat;lon;timestamp;P1;durP1;ratioP1;P2;durP2;ratioP2
70829;SDS011;58451;51.550;7.208;2023-04-06T00:00:34;26.60;;;10.20;;
70829;SDS011;58451;51.550;7.208;2023-04-06T00:02:06;25.10;;;10.30;;
70829;SDS011;58451;51.550;7.208;2023-04-06T00:03:38;24.30;;;10.30;;
70829;SDS011;58451;51.550;7.208;2023-04-06T00:05:10;25.20;;;11.00;;
70829;SDS011;58451;51.550;7.208;2023-04-06T00:06:42;26.10;;;10.80;;
70829;SDS011;58451;51.550;7.208;2023-04-06T00:08:14;26.70;;;10.40;;
70829;SDS011;58451;51.550;7.208;2023-04-06T00:09:46;25.40;;;10.70;;
70829;SDS011;58451;51.550;7.208;2023-04-06T00:11:18;26.50;;;11.20;;
70829;SDS011;58451;51.550;7.208;2023-04-06T00:12:50;28.10;;;11.20;;
70829;SDS011;58451;51.550;7.208;2023-04-06T00:14:22;27.50;;;10.90;;
70829;SDS011;58451;51.550;7.208;2023-04-06T00:15:54;25.90;;;10.70;;
70829;SDS011;58451;51.550;7.208;2023-04-06T00:17:26;26.20;;;10.20;;
70829;SDS011;58451;51.550;7.208;2023-04-06T00:18:58;26.70;;;9.80;;
70829;SDS011;58451;51.550;7.208;2023-04-06T00:20:30;27.80;;;11.60;;
70829;SDS011;58451;51.550;7.208;2023-04-06T00:22:02;27.50;;;11.80;;
70829;SDS011;58451;51.550;7.208;2023-04-06T00:23:34;28.70;;;11.50;;
70829;SDS011;58451;51.550;7.208;2023-04-06T00:25:07;26.00;;;11.10;;
70829;SDS011;58451;51.550;7.208;2023-04-06T00:26:40;25.20;;;10.40;;
70829;SDS011;58451;51.550;7.208;2023-04-06T00:28:11;26.40;;;10.90;;
70829;SDS011;58451;51.550;7.208;2023-04-06T00:29:44;26.20;;;10.40;;
70829;SDS011;58451;51.550;7.208;2023-04-06T00:31:16;28.40;;;11.40;;
70829;SDS011;58451;51.550;7.208;2023-04-06T00:32:49;25.30;;;10.40;;
70829;SDS011;58451;51.550;7.208;2023-04-06T00:34:24;25.00;;;10.70;;
70829;SDS011;58451;51.550;7.208;2023-04-06T00:35:56;29.90;;;10.40;;
70829;SDS011;58451;51.550;7.208;2023-04-06T00:37:29;23.20;;;10.10;;
70829;SDS011;58451;51.550;7.208;2023-04-06T00:39:01;27.00;;;11.00;;
70829;SDS011;58451;51.550;7.208;2023-04-06T00:40:33;25.90;;;11.60;;
70829;SDS011;58451;51.550;7.208;2023-04-06T00:42:11;26.80;;;11.40;;
70829;SDS011;58451;51.550;7.208;2023-04-06T00:43:44;30.60;;;11.30;;
70829;SDS011;58451;51.550;7.208;2023-04-06T00:45:16;23.40;;;10.30;;
70829;SDS011;58451;51.550;7.208;2023-04-06T00:46:48;24.60;;;10.10;;
70829;SDS011;58451;51.550;7.208;2023-04-06T00:48:21;28.70;;;11.40;;
70829;SDS011;58451;51.550;7.208;2023-04-06T00:49:53;29.30;;;11.80;;
70829;SDS011;58451;51.550;7.208;2023-04-06T00:51:26;28.00;;;11.90;;
70829;SDS011;58451;51.550;7.208;2023-04-06T00:52:59;28.40;;;12.30;;
70829;SDS011;58451;51.550;7.208;2023-04-06T00:54:31;31.90;;;11.50;;
70829;SDS011;58451;51.550;7.208;2023-04-06T00:56:04;31.00;;;12.50;;
70829;SDS011;58451;51.550;7.208;2023-04-06T00:57:43;30.80;;;11.90;;
70829;SDS011;58451;51.550;7.208;2023-04-06T00:59:16;29.80;;;12.50;;
70829;SDS011;58451;51.550;7.208;2023-04-06T01:00:49;30.20;;;12.90;;
70829;SDS011;58451;51.550;7.208;2023-04-06T01:02:24;30.20;;;10.40;;
70829;SDS011;58451;51.550;7.208;2023-04-06T01:03:58;29.00;;;11.80;;
70829;SDS011;58451;51.550;7.208;2023-04-06T01:05:30;30.70;;;11.90;;
70829;SDS011;58451;51.550;7.208;2023-04-06T01:07:02;27.00;;;11.30;;
70829;SDS011;58451;51.550;7.208;2023-04-06T01:08:40;25.90;;;10.90;;
70829;SDS011;58451;51.550;7.208;2023-04-06T01:10:27;29.00;;;11.60;;
70829;SDS011;58451;51.550;7.208;2023-04-06T01:12:05;27.20;;;11.00;;
70829;SDS011;58451;51.550;7.208;2023-04-06T01:13:38;25.00;;;10.40;;
70829;SDS011;58451;51.550;7.208;2023-04-06T01:15:17;22.20;;;9.90;;
70829;SDS011;58451;51.550;7.208;2023-04-06T01:16:52;27.30;;;12.10;;
70829;SDS011;58451;51.550;7.208;2023-04-06T01:18:34;26.50;;;12.10;;
70829;SDS011;58451;51.550;7.208;2023-04-06T01:20:21;26.70;;;11.50;;
70829;SDS011;58451;51.550;7.208;2023-04-06T01:21:55;30.50;;;13.20;;
70829;SDS011;58451;51.550;7.208;2023-04-06T01:23:34;31.20;;;12.00;;
70829;SDS011;58451;51.550;7.208;2023-04-06T01:25:08;34.90;;;14.00;;
70829;SDS011;58451;51.550;7.208;2023-04-06T01:27:07;29.60;;;13.00;;
70829;SDS011;58451;51.550;7.208;2023-04-06T01:28:51;26.50;;;11.90;;
70829;SDS011;58451;51.550;7.208;2023-04-06T01:30:30;33.00;;;13.30;;
70829;SDS011;58451;51.550;7.208;2023-04-06T01:32:12;30.30;;;13.00;;
70829;SDS011;58451;51.550;7.208;2023-04-06T01:33:51;32.00;;;13.50;;
70829;SDS011;58451;51.550;7.208;2023-04-06T01:35:26;32.10;;;13.20;;
70829;SDS011;58451;51.550;7.208;2023-04-06T01:37:05;29.40;;;12.60;;
70829;SDS011;58451;51.550;7.208;2023-04-06T01:38:39;27.80;;;12.00;;
70829;SDS011;58451;51.550;7.208;2023-04-06T01:40:11;29.30;;;11.50;;
70829;SDS011;58451;51.550;7.208;2023-04-06T01:41:48;30.00;;;11.50;;
70829;SDS011;58451;51.550;7.208;2023-04-06T01:43:23;30.70;;;11.90;;
70829;SDS011;58451;51.550;7.208;2023-04-06T01:45:09;30.40;;;11.50;;
70829;SDS011;58451;51.550;7.208;2023-04-06T01:46:44;27.40;;;11.50;;
70829;SDS011;58451;51.550;7.208;2023-04-06T01:48:19;24.90;;;9.70;;
70829;SDS011;58451;51.550;7.208;2023-04-06T01:49:51;24.80;;;10.40;;
70829;SDS011;58451;51.550;7.208;2023-04-06T01:51:23;29.70;;;11.30;;
70829;SDS011;58451;51.550;7.208;2023-04-06T01:52:59;24.90;;;10.40;;
70829;SDS011;58451;51.550;7.208;2023-04-06T01:54:32;26.10;;;10.90;;
70829;SDS011;58451;51.550;7.208;2023-04-06T01:56:13;26.00;;;11.40;;
70829;SDS011;58451;51.550;7.208;2023-04-06T01:57:54;26.70;;;10.80;;
70829;SDS011;58451;51.550;7.208;2023-04-06T01:59:35;27.80;;;11.00;;
70829;SDS011;58451;51.550;7.208;2023-04-06T02:01:11;29.90;;;10.60;;
70829;SDS011;58451;51.550;7.208;2023-04-06T02:02:52;26.50;;;10.80;;
70829;SDS011;58451;51.550;7.208;2023-04-06T02:04:28;28.50;;;10.40;;
70829;SDS011;58451;51.550;7.208;2023-04-06T02:06:09;27.20;;;11.10;;
70829;SDS011;58451;51.550;7.208;2023-04-06T02:07:43;29.20;;;10.80;;
70829;SDS011;58451;51.550;7.208;2023-04-06T02:09:16;29.50;;;11.00;;
70829;SDS011;58451;51.550;7.208;2023-04-06T02:10:48;27.20;;;10.60;;
70829;SDS011;58451;51.550;7.208;2023-04-06T02:12:34;26.20;;;10.40;;
70829;SDS011;58451;51.550;7.208;2023-04-06T02:14:07;25.80;;;10.40;;
70829;SDS011;58451;51.550;7.208;2023-04-06T02:15:41;27.30;;;10.50;;
70829;SDS011;58451;51.550;7.208;2023-04-06T02:17:15;25.80;;;10.60;;
70829;SDS011;58451;51.550;7.208;2023-04-06T02:18:47;27.30;;;11.80;;
70829;SDS011;58451;51.550;7.208;2023-04-06T02:20:26;27.20;;;10.40;;
70829;SDS011;58451;51.550;7.208;2023-04-06T02:21:58;28.90;;;10.90;;
70829;SDS011;58451;51.550;7.208;2023-04-06T02:23:31;30.20;;;11.30;;
70829;SDS011;58451;51.550;7.208;2023-04-06T02:25:04;29.40;;;11.10;;
70829;SDS011;58451;51.550;7.208;2023-04-06T02:26:37;30.00;;;10.10;;
70829;SDS011;58451;51.550;7.208;2023-04-06T02:28:09;29.30;;;11.30;;
70829;SDS011;58451;51.550;7.208;2023-04-06T02:29:41;30.20;;;10.80;;
70829;SDS011;58451;51.550;7.208;2023-04-06T02:31:13;27.90;;;10.60;;
70829;SDS011;58451;51.550;7.208;2023-04-06T02:32:47;29.70;;;10.70;;
70829;SDS011;58451;51.550;7.208;2023-04-06T02:34:19;26.60;;;10.70;;
70829;SDS011;58451;51.550;7.208;2023-04-06T02:35:53;27.10;;;10.70;;
70829;SDS011;58451;51.550;7.208;2023-04-06T02:37:27;30.60;;;10.60;;
70829;SDS011;58451;51.550;7.208;2023-04-06T02:38:59;27.90;;;10.10;;
70829;SDS011;58451;51.550;7.208;2023-04-06T02:40:31;30.30;;;11.20;;
70829;SDS011;58451;51.550;7.208;2023-04-06T02:42:10;33.20;;;11.20;;
70829;SDS011;58451;51.550;7.208;2023-04-06T02:43:42;28.90;;;10.80;;
70829;SDS011;58451;51.550;7.208;2023-04-06T02:45:19;30.40;;;10.40;;
70829;SDS011;58451;51.550;7.208;2023-04-06T02:46:52;27.00;;;10.60;;
70829;SDS011;58451;51.550;7.208;2023-04-06T02:48:25;28.90;;;10.30;;
70829;SDS011;58451;51.550;7.208;2023-04-06T02:49:57;29.00;;;10.60;;
70829;SDS011;58451;51.550;7.208;2023-04-06T02:51:29;30.10;;;11.60;;
70829;SDS011;58451;51.550;7.208;2023-04-06T02:53:06;29.40;;;11.00;;
70829;SDS011;58451;51.550;7.208;2023-04-06T02:54:39;28.80;;;11.70;;
70829;SDS011;58451;51.550;7.208;2023-04-06T02:56:12;31.70;;;11.90;;
70829;SDS011;58451;51.550;7.208;2023-04-06T02:57:50;31.50;;;11.80;;
70829;SDS011;58451;51.550;7.208;2023-04-06T02:59:24;30.60;;;12.00;;
70829;SDS011;58451;51.550;7.208;2023-04-06T03:01:19;33.00;;;12.20;;
70829;SDS011;58451;51.550;7.208;2023-04-06T03:02:54;32.50;;;11.90;;
70829;SDS011;58451;51.550;7.208;2023-04-06T03:04:27;32.30;;;12.00;;
70829;SDS011;58451;51.550;7.208;2023-04-06T03:06:00;30.40;;;11.90;;
70829;SDS011;58451;51.550;7.208;2023-04-06T03:07:34;29.60;;;11.50;;
70829;SDS011;58451;51.550;7.208;2023-04-06T03:09:06;35.90;;;12.00;;
70829;SDS011;58451;51.550;7.208;2023-04-06T03:10:40;32.50;;;12.90;;
70829;SDS011;58451;51.550;7.208;2023-04-06T03:12:11;33.60;;;12.90;;
70829;SDS011;58451;51.550;7.208;2023-04-06T03:14:07;34.50;;;12.50;;
70829;SDS011;58451;51.550;7.208;2023-04-06T03:15:39;34.80;;;13.00;;
70829;SDS011;58451;51.550;7.208;2023-04-06T03:17:17;35.90;;;13.20;;
70829;SDS011;58451;51.550;7.208;2023-04-06T03:18:50;33.40;;;12.80;;
70829;SDS011;58451;51.550;7.208;2023-04-06T03:20:23;35.60;;;13.40;;
70829;SDS011;58451;51.550;7.208;2023-04-06T03:21:55;34.80;;;13.70;;
70829;SDS011;58451;51.550;7.208;2023-04-06T03:23:27;35.10;;;14.20;;
70829;SDS011;58451;51.550;7.208;2023-04-06T03:25:02;34.30;;;12.90;;
70829;SDS011;58451;51.550;7.208;2023-04-06T03:26:35;45.90;;;15.60;;
70829;SDS011;58451;51.550;7.208;2023-04-06T03:28:09;40.40;;;14.30;;
70829;SDS011;58451;51.550;7.208;2023-04-06T03:29:48;38.30;;;15.20;;
70829;SDS011;58451;51.550;7.208;2023-04-06T03:31:26;37.60;;;14.60;;
70829;SDS011;58451;51.550;7.208;2023-04-06T03:33:02;35.20;;;13.80;;
70829;SDS011;58451;51.550;7.208;2023-04-06T03:34:38;36.00;;;12.90;;
70829;SDS011;58451;51.550;7.208;2023-04-06T03:36:12;38.50;;;14.70;;
70829;SDS011;58451;51.550;7.208;2023-04-06T03:37:45;37.80;;;13.70;;
70829;SDS011;58451;51.550;7.208;2023-04-06T03:39:17;35.70;;;13.60;;
70829;SDS011;58451;51.550;7.208;2023-04-06T03:40:49;35.40;;;13.90;;
70829;SDS011;58451;51.550;7.208;2023-04-06T03:42:24;38.80;;;14.80;;
70829;SDS011;58451;51.550;7.208;2023-04-06T03:44:03;38.60;;;15.40;;
70829;SDS011;58451;51.550;7.208;2023-04-06T03:45:35;35.20;;;14.40;;
70829;SDS011;58451;51.550;7.208;2023-04-06T03:47:07;37.40;;;14.90;;
70829;SDS011;58451;51.550;7.208;2023-04-06T03:48:39;36.40;;;15.00;;
70829;SDS011;58451;51.550;7.208;2023-04-06T03:50:11;36.20;;;14.10;;
70829;SDS011;58451;51.550;7.208;2023-04-06T03:51:43;34.00;;;14.60;;
70829;SDS011;58451;51.550;7.208;2023-04-06T03:53:16;37.10;;;15.10;;
70829;SDS011;58451;51.550;7.208;2023-04-06T03:54:47;35.90;;;14.80;;
70829;SDS011;58451;51.550;7.208;2023-04-06T03:56:19;41.30;;;15.40;;
70829;SDS011;58451;51.550;7.208;2023-04-06T03:57:52;34.90;;;12.30;;
70829;SDS011;58451;51.550;7.208;2023-04-06T03:59:24;34.60;;;13.40;;
70829;SDS011;58451;51.550;7.208;2023-04-06T04:00:57;40.80;;;14.50;;
70829;SDS011;58451;51.550;7.208;2023-04-06T04:02:28;32.20;;;13.60;;
70829;SDS011;58451;51.550;7.208;2023-04-06T04:04:01;39.30;;;14.70;;
70829;SDS011;58451;51.550;7.208;2023-04-06T04:05:35;38.20;;;14.20;;
70829;SDS011;58451;51.550;7.208;2023-04-06T04:07:10;36.70;;;14.30;;
70829;SDS011;58451;51.550;7.208;2023-04-06T04:08:43;37.90;;;14.00;;
70829;SDS011;58451;51.550;7.208;2023-04-06T04:10:17;40.80;;;14.90;;
70829;SDS011;58451;51.550;7.208;2023-04-06T04:11:49;40.10;;;14.40;;
70829;SDS011;58451;51.550;7.208;2023-04-06T04:13:21;41.10;;;14.50;;
70829;SDS011;58451;51.550;7.208;2023-04-06T04:14:54;40.90;;;14.80;;
70829;SDS011;58451;51.550;7.208;2023-04-06T04:16:27;41.00;;;15.10;;
70829;SDS011;58451;51.550;7.208;2023-04-06T04:17:59;38.50;;;14.40;;
70829;SDS011;58451;51.550;7.208;2023-04-06T04:19:31;37.80;;;14.80;;
70829;SDS011;58451;51.550;7.208;2023-04-06T04:21:04;35.30;;;13.70;;
70829;SDS011;58451;51.550;7.208;2023-04-06T04:22:36;35.00;;;13.90;;
70829;SDS011;58451;51.550;7.208;2023-04-06T04:24:08;35.60;;;13.80;;
70829;SDS011;58451;51.550;7.208;2023-04-06T04:25:40;42.40;;;15.80;;
70829;SDS011;58451;51.550;7.208;2023-04-06T04:27:14;37.10;;;15.10;;
70829;SDS011;58451;51.550;7.208;2023-04-06T04:28:52;34.90;;;14.00;;
70829;SDS011;58451;51.550;7.208;2023-04-06T04:30:23;39.10;;;14.20;;
70829;SDS011;58451;51.550;7.208;2023-04-06T04:31:55;39.00;;;14.70;;
70829;SDS011;58451;51.550;7.208;2023-04-06T04:33:28;31.30;;;12.50;;
70829;SDS011;58451;51.550;7.208;2023-04-06T04:35:01;31.90;;;12.10;;
70829;SDS011;58451;51.550;7.208;2023-04-06T04:36:40;36.90;;;13.70;;
70829;SDS011;58451;51.550;7.208;2023-04-06T04:38:14;35.00;;;14.20;;
70829;SDS011;58451;51.550;7.208;2023-04-06T04:39:47;39.60;;;15.90;;
70829;SDS011;58451;51.550;7.208;2023-04-06T04:41:19;44.40;;;15.80;;
70829;SDS011;58451;51.550;7.208;2023-04-06T04:42:52;41.50;;;14.60;;
70829;SDS011;58451;51.550;7.208;2023-04-06T04:44:29;40.40;;;15.40;;
70829;SDS011;58451;51.550;7.208;2023-04-06T04:46:01;41.00;;;14.40;;
70829;SDS011;58451;51.550;7.208;2023-04-06T04:47:46;37.30;;;15.20;;
70829;SDS011;58451;51.550;7.208;2023-04-06T04:49:19;33.90;;;14.00;;
70829;SDS011;58451;51.550;7.208;2023-04-06T04:50:53;42.40;;;16.30;;
70829;SDS011;58451;51.550;7.208;2023-04-06T04:52:29;30.50;;;11.30;;
70829;SDS011;58451;51.550;7.208;2023-04-06T04:54:06;33.00;;;12.50;;
70829;SDS011;58451;51.550;7.208;2023-04-06T04:55:38;38.80;;;15.80;;
70829;SDS011;58451;51.550;7.208;2023-04-06T04:57:17;41.30;;;16.50;;
70829;SDS011;58451;51.550;7.208;2023-04-06T04:58:49;43.60;;;17.30;;
70829;SDS011;58451;51.550;7.208;2023-04-06T05:00:21;39.20;;;14.70;;
70829;SDS011;58451;51.550;7.208;2023-04-06T05:01:53;41.50;;;15.20;;
70829;SDS011;58451;51.550;7.208;2023-04-06T05:03:32;40.10;;;14.90;;
70829;SDS011;58451;51.550;7.208;2023-04-06T05:05:08;38.90;;;16.40;;
70829;SDS011;58451;51.550;7.208;2023-04-06T05:06:41;37.30;;;15.80;;
70829;SDS011;58451;51.550;7.208;2023-04-06T05:08:13;43.10;;;15.90;;
70829;SDS011;58451;51.550;7.208;2023-04-06T05:09:48;34.80;;;14.70;;
70829;SDS011;58451;51.550;7.208;2023-04-06T05:11:22;35.50;;;14.50;;
70829;SDS011;58451;51.550;7.208;2023-04-06T05:12:59;36.60;;;14.60;;
70829;SDS011;58451;51.550;7.208;2023-04-06T05:14:31;33.50;;;12.30;;
70829;SDS011;58451;51.550;7.208;2023-04-06T05:16:04;34.90;;;12.50;;
70829;SDS011;58451;51.550;7.208;2023-04-06T05:17:37;37.70;;;14.10;;
70829;SDS011;58451;51.550;7.208;2023-04-06T05:19:11;34.50;;;13.50;;
70829;SDS011;58451;51.550;7.208;2023-04-06T05:20:46;34.10;;;14.10;;
70829;SDS011;58451;51.550;7.208;2023-04-06T05:22:19;35.70;;;14.20;;
70829;SDS011;58451;51.550;7.208;2023-04-06T05:23:54;49.60;;;15.30;;
70829;SDS011;58451;51.550;7.208;2023-04-06T05:25:28;36.60;;;14.60;;
70829;SDS011;58451;51.550;7.208;2023-04-06T05:27:03;36.80;;;14.70;;
70829;SDS011;58451;51.550;7.208;2023-04-06T05:28:36;36.10;;;15.10;;
70829;SDS011;58451;51.550;7.208;2023-04-06T05:30:10;36.60;;;15.20;;
70829;SDS011;58451;51.550;7.208;2023-04-06T05:31:46;42.50;;;15.30;;
70829;SDS011;58451;51.550;7.208;2023-04-06T05:33:18;33.20;;;14.10;;
70829;SDS011;58451;51.550;7.208;2023-04-06T05:35:09;33.70;;;13.70;;
70829;SDS011;58451;51.550;7.208;2023-04-06T05:36:44;34.50;;;13.90;;
70829;SDS011;58451;51.550;7.208;2023-04-06T05:38:22;39.30;;;14.80;;
70829;SDS011;58451;51.550;7.208;2023-04-06T05:39:54;35.40;;;14.20;;
70829;SDS011;58451;51.550;7.208;2023-04-06T05:41:27;35.60;;;15.20;;
70829;SDS011;58451;51.550;7.208;2023-04-06T05:42:59;34.30;;;13.70;;
70829;SDS011;58451;51.550;7.208;2023-04-06T05:44:32;35.50;;;14.70;;
70829;SDS011;58451;51.550;7.208;2023-04-06T05:46:10;38.10;;;14.80;;
70829;SDS011;58451;51.550;7.208;2023-04-06T05:47:43;35.30;;;14.30;;
70829;SDS011;58451;51.550;7.208;2023-04-06T05:49:29;44.00;;;15.70;;
70829;SDS011;58451;51.550;7.208;2023-04-06T05:51:02;36.30;;;14.90;;
70829;SDS011;58451;51.550;7.208;2023-04-06T05:52:44;41.10;;;15.40;;
70829;SDS011;58451;51.550;7.208;2023-04-06T05:54:19;40.40;;;16.40;;
70829;SDS011;58451;51.550;7.208;2023-04-06T05:55:53;41.10;;;16.60;;
70829;SDS011;58451;51.550;7.208;2023-04-06T05:57:25;37.10;;;15.60;;
70829;SDS011;58451;51.550;7.208;2023-04-06T05:58:58;41.00;;;16.40;;
70829;SDS011;58451;51.550;7.208;2023-04-06T06:00:32;39.90;;;15.40;;
70829;SDS011;58451;51.550;7.208;2023-04-06T06:02:06;42.50;;;16.40;;
70829;SDS011;58451;51.550;7.208;2023-04-06T06:03:39;37.70;;;15.70;;
70829;SDS011;58451;51.550;7.208;2023-04-06T06:05:11;37.40;;;14.90;;
70829;SDS011;58451;51.550;7.208;2023-04-06T06:06:45;38.20;;;15.00;;
70829;SDS011;58451;51.550;7.208;2023-04-06T06:08:23;33.50;;;14.30;;
70829;SDS011;58451;51.550;7.208;2023-04-06T06:09:57;36.50;;;14.00;;
70829;SDS011;58451;51.550;7.208;2023-04-06T06:11:40;34.90;;;14.00;;
70829;SDS011;58451;51.550;7.208;2023-04-06T06:13:34;37.60;;;14.40;;
70829;SDS011;58451;51.550;7.208;2023-04-06T06:15:06;32.70;;;13.60;;
70829;SDS011;58451;51.550;7.208;2023-04-06T06:16:41;30.40;;;12.70;;
70829;SDS011;58451;51.550;7.208;2023-04-06T06:18:16;31.20;;;12.80;;
70829;SDS011;58451;51.550;7.208;2023-04-06T06:19:49;32.70;;;13.20;;
70829;SDS011;58451;51.550;7.208;2023-04-06T06:21:21;35.70;;;13.50;;
70829;SDS011;58451;51.550;7.208;2023-04-06T06:22:53;28.50;;;12.10;;
70829;SDS011;58451;51.550;7.208;2023-04-06T06:24:26;29.80;;;12.20;;
70829;SDS011;58451;51.550;7.208;2023-04-06T06:26:03;29.70;;;12.30;;
70829;SDS011;58451;51.550;7.208;2023-04-06T06:27:36;27.50;;;12.70;;
70829;SDS011;58451;51.550;7.208;2023-04-06T06:29:08;28.90;;;11.90;;
70829;SDS011;58451;51.550;7.208;2023-04-06T06:30:41;32.30;;;12.10;;
70829;SDS011;58451;51.550;7.208;2023-04-06T06:32:20;32.10;;;12.20;;
70829;SDS011;58451;51.550;7.208;2023-04-06T06:33:54;29.50;;;11.50;;
70829;SDS011;58451;51.550;7.208;2023-04-06T06:35:27;29.40;;;11.90;;
70829;SDS011;58451;51.550;7.208;2023-04-06T06:37:02;25.80;;;11.10;;
70829;SDS011;58451;51.550;7.208;2023-04-06T06:38:34;29.80;;;12.30;;
70829;SDS011;58451;51.550;7.208;2023-04-06T06:40:11;28.70;;;11.20;;
70829;SDS011;58451;51.550;7.208;2023-04-06T06:41:45;27.40;;;10.40;;
70829;SDS011;58451;51.550;7.208;2023-04-06T06:43:17;22.30;;;9.10;;
70829;SDS011;58451;51.550;7.208;2023-04-06T06:44:55;22.10;;;9.20;;
70829;SDS011;58451;51.550;7.208;2023-04-06T06:46:29;18.40;;;8.40;;
70829;SDS011;58451;51.550;7.208;2023-04-06T06:48:01;20.00;;;8.00;;
70829;SDS011;58451;51.550;7.208;2023-04-06T06:49:33;19.30;;;7.60;;
70829;SDS011;58451;51.550;7.208;2023-04-06T06:51:05;15.00;;;6.70;;
70829;SDS011;58451;51.550;7.208;2023-04-06T06:52:37;18.20;;;6.00;;
70829;SDS011;58451;51.550;7.208;2023-04-06T06:54:09;14.50;;;6.50;;
70829;SDS011;58451;51.550;7.208;2023-04-06T06:55:43;15.10;;;6.10;;
70829;SDS011;58451;51.550;7.208;2023-04-06T06:57:18;15.20;;;6.10;;
70829;SDS011;58451;51.550;7.208;2023-04-06T06:58:51;16.90;;;5.70;;
70829;SDS011;58451;51.550;7.208;2023-04-06T07:00:23;15.50;;;6.60;;
70829;SDS011;58451;51.550;7.208;2023-04-06T07:01:55;14.40;;;6.10;;
70829;SDS011;58451;51.550;7.208;2023-04-06T07:03:27;13.10;;;5.20;;
70829;SDS011;58451;51.550;7.208;2023-04-06T07:05:00;16.00;;;5.70;;
70829;SDS011;58451;51.550;7.208;2023-04-06T07:06:37;11.50;;;5.00;;
70829;SDS011;58451;51.550;7.208;2023-04-06T07:08:11;13.60;;;5.40;;
70829;SDS011;58451;51.550;7.208;2023-04-06T07:09:43;10.50;;;4.80;;
70829;SDS011;58451;51.550;7.208;2023-04-06T07:11:15;12.10;;;5.40;;
70829;SDS011;58451;51.550;7.208;2023-04-06T07:12:48;11.90;;;4.80;;
70829;SDS011;58451;51.550;7.208;2023-04-06T07:14:20;12.10;;;4.90;;
70829;SDS011;58451;51.550;7.208;2023-04-06T07:15:52;13.10;;;6.10;;
70829;SDS011;58451;51.550;7.208;2023-04-06T07:17:26;13.50;;;5.10;;
70829;SDS011;58451;51.550;7.208;2023-04-06T07:18:58;13.60;;;5.80;;
70829;SDS011;58451;51.550;7.208;2023-04-06T07:20:33;13.70;;;5.90;;
70829;SDS011;58451;51.550;7.208;2023-04-06T07:22:06;11.80;;;5.00;;
70829;SDS011;58451;51.550;7.208;2023-04-06T07:23:38;14.20;;;5.30;;
70829;SDS011;58451;51.550;7.208;2023-04-06T07:25:10;13.40;;;5.20;;
70829;SDS011;58451;51.550;7.208;2023-04-06T07:26:45;11.20;;;5.40;;
70829;SDS011;58451;51.550;7.208;2023-04-06T07:28:18;14.20;;;5.30;;
70829;SDS011;58451;51.550;7.208;2023-04-06T07:29:50;11.20;;;4.60;;
70829;SDS011;58451;51.550;7.208;2023-04-06T07:31:22;12.70;;;5.90;;
70829;SDS011;58451;51.550;7.208;2023-04-06T07:32:54;12.70;;;5.20;;
70829;SDS011;58451;51.550;7.208;2023-04-06T07:34:30;13.00;;;4.70;;
70829;SDS011;58451;51.550;7.208;2023-04-06T07:36:05;12.10;;;4.60;;
70829;SDS011;58451;51.550;7.208;2023-04-06T07:37:37;14.30;;;5.50;;
70829;SDS011;58451;51.550;7.208;2023-04-06T07:39:09;11.70;;;4.80;;
70829;SDS011;58451;51.550;7.208;2023-04-06T07:40:42;13.10;;;5.50;;
70829;SDS011;58451;51.550;7.208;2023-04-06T07:42:14;14.50;;;5.70;;
70829;SDS011;58451;51.550;7.208;2023-04-06T07:43:47;10.70;;;4.80;;
70829;SDS011;58451;51.550;7.208;2023-04-06T07:45:19;12.90;;;5.30;;
70829;SDS011;58451;51.550;7.208;2023-04-06T07:46:52;12.60;;;5.30;;
70829;SDS011;58451;51.550;7.208;2023-04-06T07:48:25;9.70;;;4.00;;
70829;SDS011;58451;51.550;7.208;2023-04-06T07:49:57;12.90;;;5.90;;
70829;SDS011;58451;51.550;7.208;2023-04-06T07:51:29;12.20;;;5.70;;
70829;SDS011;58451;51.550;7.208;2023-04-06T07:53:01;12.60;;;5.20;;
70829;SDS011;58451;51.550;7.208;2023-04-06T07:54:34;13.40;;;5.40;;
70829;SDS011;58451;51.550;7.208;2023-04-06T07:56:06;11.70;;;5.30;;
70829;SDS011;58451;51.550;7.208;2023-04-06T07:57:38;13.90;;;5.70;;
70829;SDS011;58451;51.550;7.208;2023-04-06T07:59:10;17.20;;;5.20;;
70829;SDS011;58451;51.550;7.208;2023-04-06T08:00:45;14.00;;;5.90;;
70829;SDS011;58451;51.550;7.208;2023-04-06T08:02:18;12.50;;;6.00;;
70829;SDS011;58451;51.550;7.208;2023-04-06T08:03:50;13.50;;;5.80;;
70829;SDS011;58451;51.550;7.208;2023-04-06T08:05:23;12.60;;;5.70;;
70829;SDS011;58451;51.550;7.208;2023-04-06T08:06:55;12.90;;;5.00;;
70829;SDS011;58451;51.550;7.208;2023-04-06T08:08:27;14.30;;;5.70;;
70829;SDS011;58451;51.550;7.208;2023-04-06T08:09:59;11.60;;;4.80;;
70829;SDS011;58451;51.550;7.208;2023-04-06T08:11:32;14.60;;;6.10;;
70829;SDS011;58451;51.550;7.208;2023-04-06T08:13:04;14.40;;;6.10;;
70829;SDS011;58451;51.550;7.208;2023-04-06T08:14:35;13.80;;;5.10;;
70829;SDS011;58451;51.550;7.208;2023-04-06T08:16:07;13.60;;;4.90;;
70829;SDS011;58451;51.550;7.208;2023-04-06T08:17:39;15.20;;;6.20;;
70829;SDS011;58451;51.550;7.208;2023-04-06T08:19:12;14.40;;;5.70;;
70829;SDS011;58451;51.550;7.208;2023-04-06T08:20:44;11.70;;;4.60;;
70829;SDS011;58451;51.550;7.208;2023-04-06T08:22:15;17.70;;;6.50;;
70829;SDS011;58451;51.550;7.208;2023-04-06T08:23:47;12.80;;;6.10;;
70829;SDS011;58451;51.550;7.208;2023-04-06T08:25:19;14.20;;;6.30;;
70829;SDS011;58451;51.550;7.208;2023-04-06T08:26:52;13.30;;;5.60;;
70829;SDS011;58451;51.550;7.208;2023-04-06T08:28:24;13.70;;;5.90;;
70829;SDS011;58451;51.550;7.208;2023-04-06T08:29:56;13.60;;;5.60;;
70829;SDS011;58451;51.550;7.208;2023-04-06T08:31:27;15.40;;;6.70;;
70829;SDS011;58451;51.550;7.208;2023-04-06T08:33:00;12.50;;;4.40;;
70829;SDS011;58451;51.550;7.208;2023-04-06T08:34:33;12.40;;;5.70;;
70829;SDS011;58451;51.550;7.208;2023-04-06T08:36:12;14.00;;;6.60;;
70829;SDS011;58451;51.550;7.208;2023-04-06T08:37:46;15.50;;;6.40;;
70829;SDS011;58451;51.550;7.208;2023-04-06T08:39:17;14.10;;;5.90;;
70829;SDS011;58451;51.550;7.208;2023-04-06T08:40:56;13.30;;;5.60;;
70829;SDS011;58451;51.550;7.208;2023-04-06T08:42:32;11.00;;;4.60;;
70829;SDS011;58451;51.550;7.208;2023-04-06T08:44:05;14.00;;;6.60;;
70829;SDS011;58451;51.550;7.208;2023-04-06T08:45:38;10.80;;;4.80;;
70829;SDS011;58451;51.550;7.208;2023-04-06T08:47:13;19.70;;;6.70;;
70829;SDS011;58451;51.550;7.208;2023-04-06T08:48:45;14.40;;;6.50;;
70829;SDS011;58451;51.550;7.208;2023-04-06T08:50:21;14.40;;;6.60;;
70829;SDS011;58451;51.550;7.208;2023-04-06T08:51:55;12.20;;;6.20;;
70829;SDS011;58451;51.550;7.208;2023-04-06T08:53:27;14.20;;;6.50;;
70829;SDS011;58451;51.550;7.208;2023-04-06T08:55:00;13.00;;;6.50;;
70829;SDS011;58451;51.550;7.208;2023-04-06T08:56:32;14.80;;;6.70;;
70829;SDS011;58451;51.550;7.208;2023-04-06T08:58:06;14.60;;;6.70;;
70829;SDS011;58451;51.550;7.208;2023-04-06T08:59:40;11.30;;;5.20;;
70829;SDS011;58451;51.550;7.208;2023-04-06T09:01:13;14.50;;;6.20;;
70829;SDS011;58451;51.550;7.208;2023-04-06T09:02:49;13.90;;;7.00;;
70829;SDS011;58451;51.550;7.208;2023-04-06T09:04:26;12.60;;;5.60;;
70829;SDS011;58451;51.550;7.208;2023-04-06T09:05:58;11.40;;;5.30;;
70829;SDS011;58451;51.550;7.208;2023-04-06T09:07:31;15.00;;;6.40;;
70829;SDS011;58451;51.550;7.208;2023-04-06T09:09:03;13.90;;;6.70;;
70829;SDS011;58451;51.550;7.208;2023-04-06T09:10:35;14.00;;;6.50;;
70829;SDS011;58451;51.550;7.208;2023-04-06T09:12:10;12.80;;;5.50;;
70829;SDS011;58451;51.550;7.208;2023-04-06T09:13:54;15.90;;;7.70;;